createdAt,value
2023-04-15T00:00:51.048Z,28.35
2023-04-15T00:01:51.124Z,28.35
2023-04-15T00:02:51.123Z,28.34
2023-04-15T00:03:51.167Z,28.36
2023-04-15T00:04:51.114Z,28.36
2023-04-15T00:05:50.998Z,28.33
2023-04-15T00:06:51.018Z,28.34
2023-04-15T00:07:51.013Z,28.34
2023-04-15T00:08:50.978Z,28.36
2023-04-15T00:09:51.010Z,28.33
2023-04-15T00:10:51.007Z,28.36
2023-04-15T00:11:50.988Z,28.35
2023-04-15T00:12:50.956Z,28.31
2023-04-15T00:13:50.972Z,28.32
2023-04-15T00:14:50.944Z,28.33
2023-04-15T00:15:50.941Z,28.33
2023-04-15T00:16:50.972Z,28.29
2023-04-15T00:17:50.973Z,28.34
2023-04-15T00:18:50.947Z,28.31
2023-04-15T00:19:50.944Z,28.33
2023-04-15T00:20:50.903Z,28.30
2023-04-15T00:21:50.906Z,28.31
2023-04-15T00:22:50.907Z,28.31
2023-04-15T00:23:50.887Z,28.29
2023-04-15T00:24:50.882Z,28.29
2023-04-15T00:25:50.867Z,28.30
2023-04-15T00:26:50.846Z,28.28
2023-04-15T00:27:50.849Z,28.29
2023-04-15T00:28:50.857Z,28.31
2023-04-15T00:29:50.881Z,28.29
2023-04-15T00:30:50.916Z,28.27
2023-04-15T00:31:50.845Z,28.26
2023-04-15T00:32:50.975Z,28.25
2023-04-15T00:33:50.815Z,28.30
2023-04-15T00:34:50.841Z,28.27
2023-04-15T00:35:50.860Z,28.28
2023-04-15T00:36:50.843Z,28.27
2023-04-15T00:37:50.840Z,28.30
2023-04-15T00:38:50.856Z,28.25
2023-04-15T00:39:50.873Z,28.27
2023-04-15T00:40:50.892Z,28.29
2023-04-15T00:41:50.867Z,28.26
2023-04-15T00:42:50.882Z,28.26
2023-04-15T00:43:50.939Z,28.23
2023-04-15T00:44:50.905Z,28.24
2023-04-15T00:45:50.949Z,28.24
2023-04-15T00:46:50.903Z,28.25
2023-04-15T00:47:50.941Z,28.25
2023-04-15T00:48:50.894Z,28.23
2023-04-15T00:49:50.934Z,28.25
2023-04-15T00:50:50.909Z,28.24
2023-04-15T00:51:50.926Z,28.21
2023-04-15T00:52:50.966Z,28.24
2023-04-15T00:53:50.942Z,28.23
2023-04-15T00:54:50.949Z,28.21
2023-04-15T00:55:50.964Z,28.16
2023-04-15T00:56:50.971Z,28.20
2023-04-15T00:57:50.980Z,28.22
2023-04-15T00:58:50.953Z,28.22
2023-04-15T00:59:50.961Z,28.21
2023-04-15T01:00:50.985Z,28.20
2023-04-15T01:01:51.045Z,28.19
2023-04-15T01:02:51.048Z,28.21
2023-04-15T01:03:51.135Z,28.22
2023-04-15T01:04:51.006Z,28.21
2023-04-15T01:05:51.009Z,28.21
2023-04-15T01:06:50.980Z,28.19
2023-04-15T01:07:50.999Z,28.20
2023-04-15T01:08:51.011Z,28.20
2023-04-15T01:09:50.997Z,28.20
2023-04-15T01:10:50.984Z,28.17
2023-04-15T01:11:51.026Z,28.21
2023-04-15T01:12:51.035Z,28.18
2023-04-15T01:13:51.032Z,28.18
2023-04-15T01:14:51.056Z,28.16
2023-04-15T01:15:51.074Z,28.19
2023-04-15T01:16:51.037Z,28.16
2023-04-15T01:17:51.045Z,28.18
2023-04-15T01:18:51.069Z,28.19
2023-04-15T01:19:51.048Z,28.16
2023-04-15T01:20:51.063Z,28.15
2023-04-15T01:21:51.066Z,28.15
2023-04-15T01:22:51.040Z,28.17
2023-04-15T01:23:51.059Z,28.16
2023-04-15T01:24:51.054Z,28.15
2023-04-15T01:25:51.079Z,28.15
2023-04-15T01:26:51.085Z,28.14
2023-04-15T01:27:51.088Z,28.14
2023-04-15T01:28:51.133Z,28.16
2023-04-15T01:29:51.085Z,28.12
2023-04-15T01:30:51.087Z,28.11
2023-04-15T01:31:51.209Z,28.13
2023-04-15T01:32:51.142Z,28.13
2023-04-15T01:33:51.088Z,28.12
2023-04-15T01:34:51.120Z,28.12
2023-04-15T01:35:51.112Z,28.13
2023-04-15T01:36:51.134Z,28.13
2023-04-15T01:37:51.114Z,28.13
2023-04-15T01:38:51.140Z,28.13
2023-04-15T01:39:51.114Z,28.11
2023-04-15T01:40:51.125Z,28.12
2023-04-15T01:41:51.125Z,28.14
2023-04-15T01:42:51.119Z,28.10
2023-04-15T01:43:51.145Z,28.10
2023-04-15T01:44:51.144Z,28.10
2023-04-15T01:45:51.144Z,28.11
2023-04-15T01:46:51.227Z,28.09
2023-04-15T01:47:51.214Z,28.09
2023-04-15T01:48:51.174Z,28.12
2023-04-15T01:49:51.158Z,28.13
2023-04-15T01:50:51.187Z,28.09
2023-04-15T01:51:51.162Z,28.08
2023-04-15T01:52:51.183Z,28.07
2023-04-15T01:53:51.156Z,28.11
2023-04-15T01:54:51.154Z,28.13
2023-04-15T01:55:51.161Z,28.11
2023-04-15T01:56:51.169Z,28.08
2023-04-15T01:57:51.202Z,28.10
2023-04-15T01:58:51.182Z,28.08
2023-04-15T01:59:51.210Z,28.05
2023-04-15T02:00:51.198Z,28.04
2023-04-15T02:01:51.249Z,28.03
2023-04-15T02:02:51.281Z,28.00
2023-04-15T02:03:51.361Z,28.05
2023-04-15T02:04:51.228Z,28.06
2023-04-15T02:05:51.237Z,28.07
2023-04-15T02:06:51.228Z,28.04
2023-04-15T02:07:51.206Z,28.03
2023-04-15T02:08:51.240Z,28.05
2023-04-15T02:09:51.243Z,28.07
2023-04-15T02:10:51.253Z,28.04
2023-04-15T02:11:51.287Z,28.03
2023-04-15T02:12:51.290Z,28.03
2023-04-15T02:13:51.286Z,28.03
2023-04-15T02:14:51.291Z,28.04
2023-04-15T02:15:51.269Z,28.00
2023-04-15T02:16:51.418Z,28.04
2023-04-15T02:17:51.334Z,28.04
2023-04-15T02:18:51.325Z,28.04
2023-04-15T02:19:51.329Z,28.03
2023-04-15T02:20:51.336Z,28.01
2023-04-15T02:21:51.337Z,28.07
2023-04-15T02:22:51.371Z,28.04
2023-04-15T02:23:53.560Z,28.00
2023-04-15T02:24:51.498Z,28.01
2023-04-15T02:25:53.279Z,28.00
2023-04-15T02:26:51.659Z,28.03
2023-04-15T02:27:51.703Z,27.99
2023-04-15T02:28:51.678Z,28.02
2023-04-15T02:29:51.721Z,27.98
2023-04-15T02:30:51.726Z,27.98
2023-04-15T02:31:51.784Z,27.97
2023-04-15T02:32:51.717Z,28.00
2023-04-15T02:33:51.713Z,28.00
2023-04-15T02:34:51.724Z,28.04
2023-04-15T02:35:51.753Z,28.01
2023-04-15T02:36:51.782Z,27.98
2023-04-15T02:37:51.775Z,27.97
2023-04-15T02:38:51.796Z,27.95
2023-04-15T02:39:51.788Z,27.90
2023-04-15T02:40:51.824Z,27.95
2023-04-15T02:41:51.828Z,27.95
2023-04-15T02:42:52.360Z,27.96
2023-04-15T02:43:51.818Z,27.97
2023-04-15T02:44:51.829Z,27.94
2023-04-15T02:45:51.854Z,27.96
2023-04-15T02:46:51.883Z,27.96
2023-04-15T02:47:51.912Z,27.93
2023-04-15T02:48:51.867Z,27.95
2023-04-15T02:49:51.888Z,27.97
2023-04-15T02:50:52.076Z,27.91
2023-04-15T02:51:51.891Z,27.94
2023-04-15T02:52:51.920Z,27.98
2023-04-15T02:53:51.900Z,27.94
2023-04-15T02:54:51.933Z,27.96
2023-04-15T02:55:51.945Z,27.93
2023-04-15T02:56:51.948Z,27.93
2023-04-15T02:57:51.973Z,27.91
2023-04-15T02:58:51.977Z,27.91
2023-04-15T02:59:51.990Z,27.91
2023-04-15T03:00:52.014Z,27.89
2023-04-15T03:01:52.081Z,27.91
2023-04-15T03:02:52.213Z,27.89
2023-04-15T03:03:52.122Z,27.89
2023-04-15T03:04:52.038Z,27.90
2023-04-15T03:05:52.051Z,27.91
2023-04-15T03:06:52.066Z,27.93
2023-04-15T03:07:52.055Z,27.87
2023-04-15T03:08:52.058Z,27.91
2023-04-15T03:09:52.046Z,27.91
2023-04-15T03:10:52.072Z,27.91
2023-04-15T03:11:52.089Z,27.87
2023-04-15T03:12:52.092Z,27.86
2023-04-15T03:13:52.072Z,27.86
2023-04-15T03:14:52.072Z,27.88
2023-04-15T03:15:52.187Z,27.89
2023-04-15T03:16:52.118Z,27.87
2023-04-15T03:17:52.168Z,27.86
2023-04-15T03:18:52.107Z,27.88
2023-04-15T03:19:52.139Z,27.92
2023-04-15T03:20:52.131Z,27.89
2023-04-15T03:21:52.161Z,27.89
2023-04-15T03:22:52.167Z,27.89
2023-04-15T03:23:52.160Z,27.92
2023-04-15T03:24:52.153Z,27.89
2023-04-15T03:25:52.156Z,27.88
2023-04-15T03:26:52.180Z,27.88
2023-04-15T03:27:52.148Z,27.88
2023-04-15T03:28:52.199Z,27.84
2023-04-15T03:29:52.186Z,27.83
2023-04-15T03:30:52.221Z,27.84
2023-04-15T03:31:52.219Z,27.85
2023-04-15T03:32:52.250Z,27.86
2023-04-15T03:33:52.235Z,27.84
2023-04-15T03:34:52.266Z,27.86
2023-04-15T03:35:52.271Z,27.83
2023-04-15T03:36:52.261Z,27.84
2023-04-15T03:37:52.282Z,27.86
2023-04-15T03:38:52.280Z,27.85
2023-04-15T03:39:52.290Z,27.82
2023-04-15T03:40:52.337Z,27.82
2023-04-15T03:41:52.318Z,27.86
2023-04-15T03:42:52.366Z,27.82
2023-04-15T03:43:52.342Z,27.83
2023-04-15T03:44:52.364Z,27.82
2023-04-15T03:45:52.379Z,27.80
2023-04-15T03:46:52.476Z,27.81
2023-04-15T03:47:52.432Z,27.81
2023-04-15T03:48:52.917Z,27.84
2023-04-15T03:49:52.403Z,27.81
2023-04-15T03:50:52.410Z,27.82
2023-04-15T03:51:52.420Z,27.80
2023-04-15T03:52:52.440Z,27.78
2023-04-15T03:53:52.472Z,27.80
2023-04-15T03:54:52.439Z,27.80
2023-04-15T03:55:52.469Z,27.76
2023-04-15T03:56:52.471Z,27.79
2023-04-15T03:57:52.533Z,27.80
2023-04-15T03:58:52.511Z,27.82
2023-04-15T03:59:52.553Z,27.82
2023-04-15T04:00:52.543Z,27.83
2023-04-15T04:01:52.594Z,27.79
2023-04-15T04:02:52.730Z,27.79
2023-04-15T04:03:52.672Z,27.79
2023-04-15T04:04:52.728Z,27.79
2023-04-15T04:05:52.595Z,27.75
2023-04-15T04:06:52.595Z,27.74
2023-04-15T04:07:52.617Z,27.77
2023-04-15T04:08:52.629Z,27.76
2023-04-15T04:09:52.626Z,27.78
2023-04-15T04:10:52.624Z,27.75
2023-04-15T04:11:52.663Z,27.78
2023-04-15T04:12:52.667Z,27.75
2023-04-15T04:13:52.679Z,27.75
2023-04-15T04:14:52.674Z,27.77
2023-04-15T04:15:52.781Z,27.77
2023-04-15T04:16:52.732Z,27.77
2023-04-15T04:17:52.782Z,27.81
2023-04-15T04:18:52.751Z,27.74
2023-04-15T04:19:52.741Z,27.70
2023-04-15T04:20:52.763Z,27.77
2023-04-15T04:21:52.770Z,27.76
2023-04-15T04:22:52.788Z,27.71
2023-04-15T04:23:52.770Z,27.74
2023-04-15T04:24:52.787Z,27.74
2023-04-15T04:25:52.801Z,27.74
2023-04-15T04:26:52.836Z,27.72
2023-04-15T04:27:52.844Z,27.75
2023-04-15T04:28:52.845Z,27.72
2023-04-15T04:29:52.838Z,27.73
2023-04-15T04:30:52.857Z,27.73
2023-04-15T04:31:52.911Z,27.74
2023-04-15T04:32:52.946Z,27.72
2023-04-15T04:33:52.917Z,27.71
2023-04-15T04:34:52.920Z,27.69
2023-04-15T04:35:52.942Z,27.73
2023-04-15T04:36:52.942Z,27.70
2023-04-15T04:37:52.946Z,27.69
2023-04-15T04:38:52.948Z,27.65
2023-04-15T04:39:52.953Z,27.67
2023-04-15T04:40:52.965Z,27.69
2023-04-15T04:41:52.995Z,27.71
2023-04-15T04:42:53.019Z,27.70
2023-04-15T04:43:53.021Z,27.73
2023-04-15T04:44:53.030Z,27.70
2023-04-15T04:45:53.176Z,27.71
2023-04-15T04:46:53.074Z,27.71
2023-04-15T04:47:53.123Z,27.68
2023-04-15T04:48:53.062Z,27.67
2023-04-15T04:49:53.076Z,27.68
2023-04-15T04:50:53.100Z,27.74
2023-04-15T04:51:53.111Z,27.71
2023-04-15T04:52:53.112Z,27.67
2023-04-15T04:53:53.164Z,27.64
2023-04-15T04:54:53.126Z,27.64
2023-04-15T04:55:53.170Z,27.67
2023-04-15T04:56:53.172Z,27.67
2023-04-15T04:57:53.205Z,27.68
2023-04-15T04:58:53.186Z,27.67
2023-04-15T04:59:53.243Z,27.68
2023-04-15T05:00:53.304Z,27.65
2023-04-15T05:01:53.281Z,27.65
2023-04-15T05:02:53.496Z,27.65
2023-04-15T05:03:53.492Z,27.63
2023-04-15T05:04:53.336Z,27.63
2023-04-15T05:05:53.340Z,27.62
2023-04-15T05:06:53.358Z,27.62
2023-04-15T05:07:53.394Z,27.63
2023-04-15T05:08:53.449Z,27.61
2023-04-15T05:09:53.396Z,27.62
2023-04-15T05:10:53.385Z,27.63
2023-04-15T05:11:53.394Z,27.63
2023-04-15T05:12:53.435Z,27.59
2023-04-15T05:13:53.439Z,27.59
2023-04-15T05:14:53.458Z,27.55
2023-04-15T05:15:53.473Z,27.58
2023-04-15T05:16:53.494Z,27.57
2023-04-15T05:17:53.533Z,27.62
2023-04-15T05:18:53.495Z,27.57
2023-04-15T05:19:53.519Z,27.58
2023-04-15T05:20:53.551Z,27.57
2023-04-15T05:21:53.553Z,27.58
2023-04-15T05:22:53.592Z,27.57
2023-04-15T05:23:53.574Z,27.57
2023-04-15T05:24:53.604Z,27.54
2023-04-15T05:25:53.629Z,27.52
2023-04-15T05:26:53.632Z,27.56
2023-04-15T05:27:53.633Z,27.57
2023-04-15T05:28:53.644Z,27.56
2023-04-15T05:29:53.682Z,27.51
2023-04-15T05:30:53.707Z,27.51
2023-04-15T05:31:53.680Z,27.57
2023-04-15T05:32:53.736Z,27.57
2023-04-15T05:33:53.711Z,27.50
2023-04-15T05:34:53.729Z,27.50
2023-04-15T05:35:53.711Z,27.49
2023-04-15T05:36:53.768Z,27.48
2023-04-15T05:37:53.770Z,27.48
2023-04-15T05:38:53.767Z,27.48
2023-04-15T05:39:53.772Z,27.48
2023-04-15T05:40:53.787Z,27.46
2023-04-15T05:41:53.840Z,27.56
2023-04-15T05:42:53.835Z,27.53
2023-04-15T05:43:53.843Z,27.47
2023-04-15T05:44:53.875Z,27.48
2023-04-15T05:45:53.945Z,27.52
2023-04-15T05:46:53.884Z,27.45
2023-04-15T05:47:53.948Z,27.44
2023-04-15T05:48:55.976Z,27.44
2023-04-15T05:49:54.029Z,27.50
2023-04-15T05:50:54.029Z,27.46
2023-04-15T05:51:54.084Z,27.49
2023-04-15T05:52:54.080Z,27.51
2023-04-15T05:53:54.074Z,27.42
2023-04-15T05:54:54.064Z,27.44
2023-04-15T05:55:54.116Z,27.42
2023-04-15T05:56:54.221Z,27.50
2023-04-15T05:57:54.096Z,27.43
2023-04-15T05:58:54.128Z,27.39
2023-04-15T05:59:54.142Z,27.40
2023-04-15T06:00:54.132Z,27.39
2023-04-15T06:01:54.163Z,27.38
2023-04-15T06:02:54.294Z,27.42
2023-04-15T06:03:54.227Z,27.40
2023-04-15T06:04:54.204Z,27.43
2023-04-15T06:05:54.157Z,27.42
2023-04-15T06:06:54.228Z,27.43
2023-04-15T06:07:54.171Z,27.39
2023-04-15T06:08:54.179Z,27.37
2023-04-15T06:09:54.278Z,27.36
2023-04-15T06:10:54.269Z,27.38
2023-04-15T06:11:54.319Z,27.40
2023-04-15T06:12:54.251Z,27.42
2023-04-15T06:13:54.353Z,27.35
2023-04-15T06:14:54.328Z,27.36
2023-04-15T06:15:54.350Z,27.33
2023-04-15T06:16:54.334Z,27.38
2023-04-15T06:17:54.313Z,27.35
2023-04-15T06:18:54.340Z,27.36
2023-04-15T06:19:54.331Z,27.35
2023-04-15T06:20:54.331Z,27.35
2023-04-15T06:21:54.379Z,27.38
2023-04-15T06:22:54.364Z,27.42
2023-04-15T06:23:54.417Z,27.36
2023-04-15T06:24:54.369Z,27.38
2023-04-15T06:25:54.356Z,27.33
2023-04-15T06:26:54.401Z,27.34
2023-04-15T06:27:54.407Z,27.32
2023-04-15T06:28:54.403Z,27.33
2023-04-15T06:29:54.463Z,27.34
2023-04-15T06:30:54.381Z,27.29
2023-04-15T06:31:54.593Z,27.31
2023-04-15T06:32:54.457Z,27.34
2023-04-15T06:33:54.392Z,27.37
2023-04-15T06:34:54.409Z,27.27
2023-04-15T06:35:54.410Z,27.28
2023-04-15T06:36:54.429Z,27.33
2023-04-15T06:37:54.425Z,27.31
2023-04-15T06:38:54.446Z,27.31
2023-04-15T06:39:54.437Z,27.29
2023-04-15T06:40:54.444Z,27.38
2023-04-15T06:41:54.456Z,27.30
2023-04-15T06:42:54.452Z,27.31
2023-04-15T06:43:54.500Z,27.24
2023-04-15T06:44:54.452Z,27.29
2023-04-15T06:45:54.466Z,27.23
2023-04-15T06:46:54.498Z,27.25
2023-04-15T06:47:54.566Z,27.22
2023-04-15T06:48:54.472Z,27.29
2023-04-15T06:49:54.454Z,27.23
2023-04-15T06:50:54.484Z,27.23
2023-04-15T06:51:54.489Z,27.29
2023-04-15T06:52:54.496Z,27.19
2023-04-15T06:53:54.524Z,27.18
2023-04-15T06:54:54.485Z,27.21
2023-04-15T06:55:54.445Z,27.22
2023-04-15T06:56:54.519Z,27.15
2023-04-15T06:57:54.496Z,27.18
2023-04-15T06:58:54.540Z,27.16
2023-04-15T06:59:54.539Z,27.24
2023-04-15T07:00:54.606Z,27.20
2023-04-15T07:01:54.528Z,27.18
2023-04-15T07:02:54.495Z,27.20
2023-04-15T07:03:54.587Z,27.21
2023-04-15T07:04:54.544Z,27.18
2023-04-15T07:05:54.515Z,27.20
2023-04-15T07:06:54.502Z,27.15
2023-04-15T07:07:54.525Z,27.13
2023-04-15T07:08:54.537Z,27.20
2023-04-15T07:09:54.501Z,27.19
2023-04-15T07:10:54.560Z,27.16
2023-04-15T07:11:54.559Z,27.21
2023-04-15T07:12:54.562Z,27.12
2023-04-15T07:13:54.554Z,27.15
2023-04-15T07:14:54.549Z,27.17
2023-04-15T07:15:54.562Z,27.06
2023-04-15T07:16:54.604Z,27.05
2023-04-15T07:17:54.593Z,27.03
2023-04-15T07:18:54.589Z,27.04
2023-04-15T07:19:54.586Z,27.03
2023-04-15T07:20:54.588Z,27.16
2023-04-15T07:21:54.543Z,27.06
2023-04-15T07:22:54.558Z,27.05
2023-04-15T07:23:54.516Z,27.05
2023-04-15T07:24:54.537Z,26.99
2023-04-15T07:25:54.553Z,27.04
2023-04-15T07:26:54.605Z,27.09
2023-04-15T07:27:54.582Z,27.01
2023-04-15T07:28:54.568Z,26.98
2023-04-15T07:29:54.536Z,27.02
2023-04-15T07:30:54.597Z,26.97
2023-04-15T07:31:54.632Z,26.96
2023-04-15T07:32:54.612Z,26.93
2023-04-15T07:33:54.571Z,26.98
2023-04-15T07:34:54.487Z,26.97
2023-04-15T07:35:54.477Z,26.92
2023-04-15T07:36:54.479Z,26.88
2023-04-15T07:37:54.467Z,26.85
2023-04-15T07:38:54.559Z,26.96
2023-04-15T07:39:54.484Z,26.94
2023-04-15T07:40:54.466Z,26.99
2023-04-15T07:41:54.486Z,26.90
2023-04-15T07:42:54.497Z,26.99
2023-04-15T07:43:54.490Z,26.96
2023-04-15T07:44:54.576Z,26.88
2023-04-15T07:45:54.589Z,26.87
2023-04-15T07:46:54.663Z,26.83
2023-04-15T07:47:54.652Z,26.85
2023-04-15T07:48:54.609Z,26.92
2023-04-15T07:49:54.629Z,26.88
2023-04-15T07:50:54.584Z,26.84
2023-04-15T07:51:54.659Z,26.84
2023-04-15T07:52:54.620Z,26.79
2023-04-15T07:53:54.653Z,26.83
2023-04-15T07:54:54.639Z,26.76
2023-04-15T07:55:54.710Z,26.84
2023-04-15T07:56:54.720Z,26.81
2023-04-15T07:57:54.736Z,26.80
2023-04-15T07:58:54.783Z,26.79
2023-04-15T07:59:54.786Z,26.85
2023-04-15T08:00:54.875Z,26.78
2023-04-15T08:01:54.919Z,26.79
2023-04-15T08:02:55.127Z,26.85
2023-04-15T08:03:55.113Z,26.78
2023-04-15T08:04:55.094Z,26.79
2023-04-15T08:05:55.108Z,26.85
2023-04-15T08:06:55.189Z,26.81
2023-04-15T08:07:55.262Z,26.77
2023-04-15T08:08:55.312Z,26.71
2023-04-15T08:09:55.377Z,26.75
2023-04-15T08:10:55.390Z,26.68
2023-04-15T08:11:55.452Z,26.70
2023-04-15T08:12:55.503Z,26.84
2023-04-15T08:13:55.547Z,26.77
2023-04-15T08:14:55.622Z,26.81
2023-04-15T08:15:55.690Z,26.78
2023-04-15T08:16:55.744Z,26.82
2023-04-15T08:17:55.814Z,26.75
2023-04-15T08:18:55.835Z,26.80
2023-04-15T08:19:55.878Z,26.81
2023-04-15T08:20:55.957Z,26.74
2023-04-15T08:21:56.025Z,26.66
2023-04-15T08:22:56.076Z,26.76
2023-04-15T08:23:56.130Z,26.70
2023-04-15T08:24:56.180Z,26.69
2023-04-15T08:25:56.238Z,26.75
2023-04-15T08:26:56.318Z,26.77
2023-04-15T08:27:56.360Z,26.66
2023-04-15T08:28:56.454Z,26.61
2023-04-15T08:29:56.411Z,26.66
2023-04-15T08:30:56.496Z,26.66
2023-04-15T08:31:56.585Z,26.61
2023-04-15T08:32:56.638Z,26.66
2023-04-15T08:33:56.652Z,26.64
2023-04-15T08:34:56.691Z,26.62
2023-04-15T08:35:56.762Z,26.58
2023-04-15T08:36:56.837Z,26.66
2023-04-15T08:37:56.916Z,26.63
2023-04-15T08:38:56.954Z,26.57
2023-04-15T08:39:57.030Z,26.59
2023-04-15T08:40:57.081Z,26.60
2023-04-15T08:41:57.142Z,26.57
2023-04-15T08:42:57.182Z,26.58
2023-04-15T08:43:57.254Z,26.57
2023-04-15T08:44:57.326Z,26.53
2023-04-15T08:45:57.370Z,26.51
2023-04-15T08:46:57.454Z,26.58
2023-04-15T08:47:57.544Z,26.56
2023-04-15T08:48:57.589Z,26.55
2023-04-15T08:49:57.606Z,26.52
2023-04-15T08:50:57.663Z,26.52
2023-04-15T08:51:57.759Z,26.54
2023-04-15T08:52:57.795Z,26.57
2023-04-15T08:53:57.820Z,26.49
2023-04-15T08:54:57.918Z,26.56
2023-04-15T08:55:57.992Z,26.59
2023-04-15T08:56:58.045Z,26.54
2023-04-15T08:57:58.103Z,26.58
2023-04-15T08:58:58.150Z,26.59
2023-04-15T08:59:58.239Z,26.47
2023-04-15T09:00:58.298Z,26.57
2023-04-15T09:01:58.381Z,26.45
2023-04-15T09:02:58.440Z,26.50
2023-04-15T09:03:58.459Z,26.54
2023-04-15T09:04:58.507Z,26.49
2023-04-15T09:05:58.563Z,26.52
2023-04-15T09:06:58.648Z,26.53
2023-04-15T09:07:58.708Z,26.56
2023-04-15T09:08:58.758Z,26.46
2023-04-15T09:09:58.820Z,26.49
2023-04-15T09:10:58.890Z,26.51
2023-04-15T09:11:58.930Z,26.53
2023-04-15T09:12:58.988Z,26.54
2023-04-15T09:13:59.065Z,26.47
2023-04-15T09:14:59.127Z,26.48
2023-04-15T09:15:59.169Z,26.47
2023-04-15T09:16:59.355Z,26.51
2023-04-15T09:17:59.343Z,26.47
2023-04-15T09:18:59.488Z,26.45
2023-04-15T09:19:59.406Z,26.45
2023-04-15T09:20:59.441Z,26.44
2023-04-15T09:21:59.606Z,26.44
2023-04-15T09:22:59.547Z,26.42
2023-04-15T09:23:59.811Z,26.41
2023-04-15T09:24:59.640Z,26.39
2023-04-15T09:25:59.720Z,26.39
2023-04-15T09:26:59.741Z,26.42
2023-04-15T09:27:59.807Z,26.40
2023-04-15T09:28:59.839Z,26.31
2023-04-15T09:29:59.853Z,26.26
2023-04-15T09:30:59.929Z,26.35
2023-04-15T09:31:59.943Z,26.23
2023-04-15T09:33:00.019Z,26.23
2023-04-15T09:34:00.114Z,26.26
2023-04-15T09:35:00.036Z,25.87
2023-04-15T09:36:00.065Z,25.83
2023-04-15T09:37:00.112Z,25.58
2023-04-15T09:38:00.115Z,25.16
2023-04-15T09:39:00.155Z,25.09
2023-04-15T09:40:00.208Z,24.87
2023-04-15T09:41:00.238Z,25.11
2023-04-15T09:42:00.211Z,25.28
2023-04-15T09:43:00.228Z,25.49
2023-04-15T09:44:00.523Z,25.04
2023-04-15T09:45:00.272Z,25.29
2023-04-15T09:46:00.353Z,25.21
2023-04-15T09:47:00.299Z,25.14
2023-04-15T09:48:00.364Z,25.32
2023-04-15T09:49:00.352Z,25.69
2023-04-15T09:50:00.491Z,25.86
2023-04-15T09:51:00.396Z,25.74
2023-04-15T09:52:05.481Z,25.89
2023-04-15T09:53:01.462Z,26.13
2023-04-15T09:54:00.555Z,26.10
2023-04-15T09:55:00.467Z,26.02
2023-04-15T09:56:00.396Z,25.95
2023-04-15T09:57:00.408Z,26.00
2023-04-15T09:58:00.417Z,26.13
2023-04-15T09:59:00.394Z,25.96
2023-04-15T10:00:00.394Z,26.00
2023-04-15T10:01:00.389Z,26.14
2023-04-15T10:02:00.377Z,25.95
2023-04-15T10:03:00.485Z,26.27
2023-04-15T10:04:00.606Z,26.21
2023-04-15T10:05:00.338Z,26.17
2023-04-15T10:06:00.353Z,26.13
2023-04-15T10:07:00.350Z,26.21
2023-04-15T10:08:00.333Z,26.19
2023-04-15T10:09:00.330Z,26.18
2023-04-15T10:10:00.297Z,26.22
2023-04-15T10:11:00.343Z,26.22
2023-04-15T10:12:00.357Z,26.26
2023-04-15T10:13:00.369Z,26.27
2023-04-15T10:14:00.728Z,26.28
2023-04-15T10:15:00.467Z,26.13
2023-04-15T10:16:00.608Z,25.91
2023-04-15T10:17:00.539Z,26.24
2023-04-15T10:18:00.630Z,26.31
2023-04-15T10:19:00.614Z,25.88
2023-04-15T10:20:00.660Z,26.30
2023-04-15T10:21:00.693Z,26.20
2023-04-15T10:22:00.731Z,26.27
2023-04-15T10:23:00.796Z,26.26
2023-04-15T10:24:00.928Z,26.30
2023-04-15T10:25:00.864Z,26.32
2023-04-15T10:26:00.861Z,26.30
2023-04-15T10:27:00.904Z,26.29
2023-04-15T10:28:00.935Z,26.30
2023-04-15T10:29:00.968Z,26.21
2023-04-15T10:30:01.007Z,26.26
2023-04-15T10:31:01.059Z,26.18
2023-04-15T10:32:01.089Z,26.29
2023-04-15T10:33:01.124Z,26.26
2023-04-15T10:34:01.387Z,26.23
2023-04-15T10:35:01.199Z,26.17
2023-04-15T10:36:01.204Z,26.21
2023-04-15T10:37:01.238Z,26.22
2023-04-15T10:38:01.298Z,26.25
2023-04-15T10:39:01.311Z,26.18
2023-04-15T10:40:01.301Z,26.25
2023-04-15T10:41:01.344Z,26.22
2023-04-15T10:42:01.434Z,26.23
2023-04-15T10:43:01.399Z,26.17
2023-04-15T10:44:01.613Z,26.20
2023-04-15T10:45:01.489Z,26.19
2023-04-15T10:46:01.479Z,26.01
2023-04-15T10:47:01.546Z,26.18
2023-04-15T10:48:03.455Z,26.03
2023-04-15T10:49:01.586Z,26.03
2023-04-15T10:50:01.665Z,25.80
2023-04-15T10:51:01.607Z,25.61
2023-04-15T10:52:01.658Z,25.91
2023-04-15T10:53:01.677Z,25.79
2023-04-15T10:54:01.735Z,25.99
2023-04-15T10:55:01.770Z,26.15
2023-04-15T10:56:01.763Z,26.13
2023-04-15T10:57:01.813Z,26.03
2023-04-15T10:58:01.786Z,26.19
2023-04-15T10:59:01.805Z,25.84
2023-04-15T11:00:01.809Z,26.16
2023-04-15T11:01:01.846Z,26.27
2023-04-15T11:02:01.942Z,26.17
2023-04-15T11:03:01.972Z,25.88
2023-04-15T11:04:02.326Z,26.26
2023-04-15T11:05:02.016Z,26.13
2023-04-15T11:06:02.013Z,26.10
2023-04-15T11:07:02.090Z,26.25
2023-04-15T11:08:02.075Z,25.97
2023-04-15T11:09:02.146Z,26.19
2023-04-15T11:10:02.144Z,26.19
2023-04-15T11:11:02.180Z,26.24
2023-04-15T11:12:02.233Z,26.25
2023-04-15T11:13:02.269Z,25.85
2023-04-15T11:14:02.451Z,26.30
2023-04-15T11:15:02.326Z,26.17
2023-04-15T11:16:02.366Z,26.26
2023-04-15T11:17:02.374Z,26.16
2023-04-15T11:18:02.424Z,26.19
2023-04-15T11:19:02.429Z,26.27
2023-04-15T11:20:02.479Z,26.25
2023-04-15T11:21:02.500Z,26.23
2023-04-15T11:22:02.514Z,26.05
2023-04-15T11:23:13.396Z,26.14
2023-04-15T11:24:04.075Z,26.18
2023-04-15T11:25:02.571Z,26.25
2023-04-15T11:26:02.579Z,26.23
2023-04-15T11:27:02.520Z,25.87
2023-04-15T11:28:02.529Z,26.26
2023-04-15T11:29:02.736Z,26.04
2023-04-15T11:30:02.493Z,26.22
2023-04-15T11:31:02.515Z,26.19
2023-04-15T11:32:02.588Z,26.20
2023-04-15T11:33:02.517Z,26.12
2023-04-15T11:34:02.503Z,26.12
2023-04-15T11:35:02.474Z,26.09
2023-04-15T11:36:02.535Z,26.19
2023-04-15T11:37:02.491Z,26.16
2023-04-15T11:38:02.447Z,26.05
2023-04-15T11:39:02.424Z,26.12
2023-04-15T11:40:02.417Z,26.25
2023-04-15T11:41:02.446Z,26.25
2023-04-15T11:42:02.481Z,26.05
2023-04-15T11:43:02.525Z,26.21
2023-04-15T11:44:02.838Z,26.22
2023-04-15T11:45:02.591Z,26.25
2023-04-15T11:46:02.786Z,26.24
2023-04-15T11:47:02.681Z,26.29
2023-04-15T11:48:02.702Z,26.30
2023-04-15T11:49:02.720Z,26.26
2023-04-15T11:50:02.728Z,26.11
2023-04-15T11:51:02.776Z,26.19
2023-04-15T11:52:02.813Z,26.25
2023-04-15T11:53:02.832Z,26.24
2023-04-15T11:54:03.263Z,26.23
2023-04-15T11:55:02.936Z,26.26
2023-04-15T11:56:02.951Z,26.26
2023-04-15T11:57:02.972Z,26.26
2023-04-15T11:58:03.003Z,26.25
2023-04-15T11:59:03.035Z,26.15
2023-04-15T12:00:03.082Z,26.27
2023-04-15T12:01:03.116Z,26.27
2023-04-15T12:02:03.240Z,26.29
2023-04-15T12:03:03.323Z,26.33
2023-04-15T12:04:03.838Z,26.29
2023-04-15T12:05:03.380Z,26.26
2023-04-15T12:06:03.347Z,26.31
2023-04-15T12:07:03.368Z,26.29
2023-04-15T12:08:03.399Z,26.34
2023-04-15T12:09:03.464Z,26.29
2023-04-15T12:10:03.524Z,26.35
2023-04-15T12:11:03.539Z,26.27
2023-04-15T12:12:03.607Z,26.24
2023-04-15T12:13:03.632Z,26.31
2023-04-15T12:14:03.911Z,26.23
2023-04-15T12:15:03.724Z,26.31
2023-04-15T12:16:03.800Z,26.21
2023-04-15T12:17:03.808Z,26.04
2023-04-15T12:18:03.857Z,26.25
2023-04-15T12:19:03.870Z,26.25
2023-04-15T12:20:03.940Z,26.28
2023-04-15T12:21:03.961Z,26.23
2023-04-15T12:22:04.009Z,26.27
2023-04-15T12:23:04.023Z,26.23
2023-04-15T12:24:04.313Z,26.29
2023-04-15T12:25:04.127Z,26.26
2023-04-15T12:26:04.176Z,26.25
2023-04-15T12:27:04.197Z,26.31
2023-04-15T12:28:04.221Z,26.25
2023-04-15T12:29:04.280Z,26.28
2023-04-15T12:30:04.325Z,26.28
2023-04-15T12:31:04.356Z,26.22
2023-04-15T12:32:04.390Z,26.24
2023-04-15T12:33:04.445Z,26.31
2023-04-15T12:34:04.691Z,26.31
2023-04-15T12:35:04.511Z,26.31
2023-04-15T12:36:04.556Z,26.29
2023-04-15T12:37:04.581Z,26.27
2023-04-15T12:38:04.697Z,26.19
2023-04-15T12:39:04.715Z,26.13
2023-04-15T12:40:04.728Z,26.22
2023-04-15T12:41:04.782Z,26.19
2023-04-15T12:42:04.863Z,26.20
2023-04-15T12:43:04.873Z,26.21
2023-04-15T12:44:05.023Z,26.17
2023-04-15T12:45:04.997Z,26.15
2023-04-15T12:46:05.077Z,26.20
2023-04-15T12:47:05.106Z,26.17
2023-04-15T12:48:05.156Z,26.02
2023-04-15T12:49:05.231Z,26.15
2023-04-15T12:50:05.326Z,26.20
2023-04-15T12:51:05.843Z,26.19
2023-04-15T12:52:05.434Z,26.15
2023-04-15T12:53:05.457Z,26.20